Map

Track Data

SID SEASON NUMBER BASIN SUBBASIN NAME ISO_TIME NATURE LAT LON WMO_WIND WMO_PRES WMO_AGENCY TRACK_TYPE DIST2LAND LANDFALL IFLAG USA_AGENCY USA_ATCF_ID USA_LAT USA_LON USA_RECORD USA_STATUS USA_WIND USA_PRES USA_SSHS USA_R34_NE USA_R34_SE USA_R34_SW USA_R34_NW USA_R50_NE USA_R50_SE USA_R50_SW USA_R50_NW USA_R64_NE USA_R64_SE USA_R64_SW USA_R64_NW USA_POCI USA_ROCI USA_RMW USA_EYE TOKYO_LAT TOKYO_LON TOKYO_GRADE TOKYO_WIND TOKYO_PRES TOKYO_R50_DIR TOKYO_R50_LONG TOKYO_R50_SHORT TOKYO_R30_DIR TOKYO_R30_LONG TOKYO_R30_SHORT TOKYO_LAND CMA_LAT CMA_LON CMA_CAT CMA_WIND CMA_PRES HKO_LAT HKO_LON HKO_CAT HKO_WIND HKO_PRES NEWDELHI_LAT NEWDELHI_LON NEWDELHI_GRADE NEWDELHI_WIND NEWDELHI_PRES NEWDELHI_CI NEWDELHI_DP NEWDELHI_POCI REUNION_LAT REUNION_LON REUNION_TYPE REUNION_WIND REUNION_PRES REUNION_TNUM REUNION_CI REUNION_RMW REUNION_R34_NE REUNION_R34_SE REUNION_R34_SW REUNION_R34_NW REUNION_R50_NE REUNION_R50_SE REUNION_R50_SW REUNION_R50_NW REUNION_R64_NE REUNION_R64_SE REUNION_R64_SW REUNION_R64_NW BOM_LAT BOM_LON BOM_TYPE BOM_WIND BOM_PRES BOM_TNUM BOM_CI BOM_RMW BOM_R34_NE BOM_R34_SE BOM_R34_SW BOM_R34_NW BOM_R50_NE BOM_R50_SE BOM_R50_SW BOM_R50_NW BOM_R64_NE BOM_R64_SE BOM_R64_SW BOM_R64_NW BOM_ROCI BOM_POCI BOM_EYE BOM_POS_METHOD BOM_PRES_METHOD NADI_LAT NADI_LON NADI_CAT NADI_WIND NADI_PRES WELLINGTON_LAT WELLINGTON_LON WELLINGTON_WIND WELLINGTON_PRES DS824_LAT DS824_LON DS824_STAGE DS824_WIND DS824_PRES TD9636_LAT TD9636_LON TD9636_STAGE TD9636_WIND TD9636_PRES TD9635_LAT TD9635_LON TD9635_WIND TD9635_PRES TD9635_ROCI NEUMANN_LAT NEUMANN_LON NEUMANN_CLASS NEUMANN_WIND NEUMANN_PRES MLC_LAT MLC_LON MLC_CLASS MLC_WIND MLC_PRES USA_GUST BOM_GUST BOM_GUST_PER REUNION_GUST REUNION_GUST_PER USA_SEAHGT USA_SEARAD_NE USA_SEARAD_SE USA_SEARAD_SW USA_SEARAD_NW STORM_SPEED STORM_DIR
1911080S15066 1911 28 SI MM NOT_NAMED 1911-03-20 18:00:00 NR -15.0000 66.4000 main 1084 1069 __________O___ -1 -15.0000 66.4000 7 3 216
1911080S15066 1911 28 SI MM NOT_NAMED 1911-03-20 21:00:00 NR -15.1313 66.2985 main 1069 1048 __________P___ -1 -15.1313 66.2985 7 3 216
1911080S15066 1911 28 SI MM NOT_NAMED 1911-03-21 00:00:00 NR -15.2700 66.1976 main 1048 1033 __________P___ -1 -15.2700 66.1976 7 4 214
1911080S15066 1911 28 SI MM NOT_NAMED 1911-03-21 03:00:00 NR -15.4238 66.0979 main 1033 1027 __________P___ -1 -15.4238 66.0979 7 2 202
1911080S15066 1911 28 SI MM NOT_NAMED 1911-03-21 06:00:00 NR -15.4600 66.1200 reunion main 1027 1027 _____O____O___ -1 -14.9000 66.6000 99 9.90000 -15.6000 66.0000 7 1 166
1911080S15066 1911 28 SI MM NOT_NAMED 1911-03-21 09:00:00 NR -15.5252 66.1093 main 1027 1021 _____P____P___ -1 -14.9688 66.5198 99 -15.8034 65.9040 7 2 192
1911080S15066 1911 28 SI MM NOT_NAMED 1911-03-21 12:00:00 NR -15.6045 66.0780 main 1021 1006 _____P____P___ -1 -15.0406 66.4388 99 -16.0275 65.8074 7 2 204
1911080S15066 1911 28 SI MM NOT_NAMED 1911-03-21 15:00:00 NR -15.6906 66.0318 main 1006 991 _____P____P___ -1 -15.1184 66.3565 99 -16.2628 65.7071 7 3 209
1911080S15066 1911 28 SI MM NOT_NAMED 1911-03-21 18:00:00 NR -15.8525 65.9360 main 986 971 _____P____O___ -1 -15.2050 66.2721 99 -16.5000 65.6000 7 4 211
1911080S15066 1911 28 SI MM NOT_NAMED 1911-03-21 21:00:00 NR -16.0143 65.8275 main 971 951 _____P____P___ -1 -15.3035 66.1849 99 -16.7250 65.4701 7 4 213
1911080S15066 1911 28 SI MM NOT_NAMED 1911-03-22 00:00:00 NR -16.1835 65.7147 main 951 931 _____P____P___ -1 -15.4168 66.0943 99 -16.9501 65.3351 7 4 212
1911080S15066 1911 28 SI MM NOT_NAMED 1911-03-22 03:00:00 NR -16.3615 65.6036 main 931 916 _____P____P___ -1 -15.5480 65.9996 99 -17.1750 65.2076 7 4 209
1911080S15066 1911 28 SI MM NOT_NAMED 1911-03-22 06:00:00 NR -16.5500 65.5000 reunion main 916 896 _____O____O___ -1 -15.7000 65.9000 99 9.90000 -17.4000 65.1000 7 4 205
1911080S15066 1911 28 SI MM NOT_NAMED 1911-03-22 09:00:00 NR -16.7558 65.4098 main 891 872 _____P____P___ -1 -15.8745 65.7953 99 -17.6371 65.0243 7 5 201
1911080S15066 1911 28 SI MM NOT_NAMED 1911-03-22 12:00:00 NR -16.9705 65.3286 main 872 862 _____P____P___ -1 -16.0685 65.6873 99 -17.8724 64.9699 7 5 199
1911080S15066 1911 28 SI MM NOT_NAMED 1911-03-22 15:00:00 NR -17.1871 65.2545 main 862 843 _____P____P___ -1 -16.2777 65.5784 99 -18.0965 64.9305 7 5 198
1911080S15066 1911 28 SI MM NOT_NAMED 1911-03-22 18:00:00 NR -17.3988 65.1853 main 843 824 _____P____O___ -1 -16.4977 65.4707 99 -18.3000 64.9000 7 4 199
1911080S15066 1911 28 SI MM NOT_NAMED 1911-03-22 21:00:00 NR -17.5979 65.1111 main 824 806 _____P____P___ -1 -16.7242 65.3666 99 -18.4715 64.8556 7 4 200
1911080S15066 1911 28 SI MM NOT_NAMED 1911-03-23 00:00:00 NR -17.7877 65.0443 main 806 798 _____P____P___ -1 -16.9529 65.2686 99 -18.6225 64.8200 7 4 198
1911080S15066 1911 28 SI MM NOT_NAMED 1911-03-23 03:00:00 NR -17.9709 64.9892 main 798 795 _____P____P___ -1 -17.1796 65.1789 99 -18.7622 64.7994 7 4 194
1911080S15066 1911 28 SI MM NOT_NAMED 1911-03-23 06:00:00 NR -18.1500 64.9500 reunion main 795 777 _____O____O___ -1 -17.4000 65.1000 99 9.90000 -18.9000 64.8000 7 4 188
1911080S15066 1911 28 SI MM NOT_NAMED 1911-03-23 09:00:00 NR -18.3322 64.9300 main 777 771 _____P____P___ -1 -17.6063 65.0277 99 -19.0581 64.8324 7 4 182
1911080S15066 1911 28 SI MM NOT_NAMED 1911-03-23 12:00:00 NR -18.5123 64.9247 main 771 765 _____P____P___ -1 -17.8095 64.9645 99 -19.2150 64.8849 7 4 0
1911080S15066 1911 28 SI MM NOT_NAMED 1911-03-23 15:00:00 NR -18.6865 64.9279 main 765 762 _____P____P___ -1 -18.0086 64.9110 99 -19.3644 64.9449 7 3 0
1911080S15066 1911 28 SI MM NOT_NAMED 1911-03-23 18:00:00 NR -18.8512 64.9337 main 759 757 _____P____O___ -1 -18.2023 64.8674 99 -19.5000 65.0000 7 3 0
1911080S15066 1911 28 SI MM NOT_NAMED 1911-03-23 21:00:00 NR -19.0035 64.9373 main 757 755 _____P____P___ -1 -18.3895 64.8341 99 -19.6175 65.0404 7 2 0
1911080S15066 1911 28 SI MM NOT_NAMED 1911-03-24 00:00:00 NR -19.0623 64.9213 main 755 755 _____P____P___ -1 -18.5690 64.8116 99 -19.7200 65.0676 7 1 207
1911080S15066 1911 28 SI MM NOT_NAMED 1911-03-24 03:00:00 NR -19.0972 64.8954 main 755 755 _____P____P___ -1 -18.7395 64.8001 99 -19.8125 65.0860 7 1 237
1911080S15066 1911 28 SI MM NOT_NAMED 1911-03-24 06:00:00 NR -19.1000 64.8600 reunion main 755 744 _____O____O___ -1 -18.9000 64.8000 99 9.90000 -19.9000 65.1000 7 1 302
1911080S15066 1911 28 SI MM NOT_NAMED 1911-03-24 09:00:00 NR -19.0308 64.7851 main 747 744 _____P________ -1 -19.0308 64.7851 99 7 1 240
1911080S15066 1911 28 SI MM NOT_NAMED 1911-03-24 12:00:00 NR -19.1490 64.7798 main 744 740 _____P________ -1 -19.1490 64.7798 99 7 2 173
1911080S15066 1911 28 SI MM NOT_NAMED 1911-03-24 15:00:00 NR -19.2600 64.7869 main 740 738 _____P________ -1 -19.2600 64.7869 99 7 2 0
1911080S15066 1911 28 SI MM NOT_NAMED 1911-03-24 18:00:00 NR -19.3694 64.8089 main 738 737 _____P________ -1 -19.3694 64.8089 99 2 165
1911080S15066 1911 28 SI MM NOT_NAMED 1911-03-24 21:00:00 NR -19.4826 64.8486 main 737 737 _____P________ -1 -19.4826 64.8486 99 3 158
1911080S15066 1911 28 SI MM NOT_NAMED 1911-03-25 00:00:00 NR -19.6051 64.9085 main 746 744 _____P________ -1 -19.6051 64.9085 99 3 152
1911080S15066 1911 28 SI MM NOT_NAMED 1911-03-25 03:00:00 NR -19.7424 64.9914 main 755 754 _____P________ -1 -19.7424 64.9914 99 3 148
1911080S15066 1911 28 SI MM NOT_NAMED 1911-03-25 06:00:00 NR -19.9000 65.1000 reunion main 763 762 _____O________ -1 -19.9000 65.1000 99 9.90000 4 146
1911080S15066 1911 28 SI MM NOT_NAMED 1911-03-25 09:00:00 NR -20.0819 65.2360 main 772 772 _____P________ -1 -20.0819 65.2360 99 5 144
1911080S15066 1911 28 SI MM NOT_NAMED 1911-03-25 12:00:00 NR -20.2862 65.3971 main 792 792 _____P________ -1 -20.2862 65.3971 99 5 143
1911080S15066 1911 28 SI MM NOT_NAMED 1911-03-25 15:00:00 NR -20.5097 65.5799 main 813 813 _____P________ -1 -20.5097 65.5799 99 6 142
1911080S15066 1911 28 SI MM NOT_NAMED 1911-03-25 18:00:00 NR -20.7491 65.7811 main 834 834 _____P________ -1 -20.7491 65.7811 99 6 142
1911080S15066 1911 28 SI MM NOT_NAMED 1911-03-25 21:00:00 NR -21.0011 65.9971 main 856 856 _____P________ -1 -21.0011 65.9971 99 7 141
1911080S15066 1911 28 SI MM NOT_NAMED 1911-03-26 00:00:00 NR -21.2624 66.2246 main 880 880 _____P________ -1 -21.2624 66.2246 99 7 141
1911080S15066 1911 28 SI MM NOT_NAMED 1911-03-26 03:00:00 NR -21.5298 66.4601 main 913 913 _____P________ -1 -21.5298 66.4601 99 7 141
1911080S15066 1911 28 SI MM NOT_NAMED 1911-03-26 06:00:00 NR -21.8000 66.7000 reunion main 938 _____O________ -1 -21.8000 66.7000 99 9.90000 7 140

About IBTrACS Database

This database is a web-friendly format of International Best Track Archive for Climate Stewardship (IBTrACS), a global best track data archive curated by NOAA dating back to 1842.

Updated: 2021-11-26